Meteorología y climatología de Navarra
Datos de la estación - Meteo Navarra

Estación de Aralar GN

Altitud 1344 m.


Datos desde el 12/09/2019 hasta el 13/09/2019 en horario solar
Los datos son PROVISIONALES

Anterior Página 1 de 1 Siguiente Descargar: Formato para Excel 2000 o superior   Formato csv   Formato para OpenOffice Calc
Fecha Temperatura Humedad relativa Radiación global Insolación Precipitación Vel. viento 10 m Vel. viento 10 m Dir. viento 10 m
ºC % W/m² s l/m² m/s km/h º
12/09/2019 0:00 7.3 100 0.0 0 0.0 9.2 33.2 343
12/09/2019 0:10 7.4 100 0.0 0 0.0 8.7 31.3 344
12/09/2019 0:20 7.2 100 0.0 0 0.1 10.2 36.7 347
12/09/2019 0:30 7.0 100 0.0 0 0.0 9.1 32.9 340
12/09/2019 0:40 7.0 100 0.0 0 0.0 6.1 22.0 336
12/09/2019 0:50 6.9 100 0.0 0 0.0 7.7 27.9 340
12/09/2019 1:00 6.9 100 0.0 0 0.0 9.0 32.5 344
12/09/2019 1:10 6.9 100 0.0 0 0.0 10.2 36.8 344
12/09/2019 1:20 7.0 100 0.0 0 0.0 10.9 39.1 348
12/09/2019 1:30 6.7 100 0.0 0 0.0 10.8 38.8 351
12/09/2019 1:40 6.8 100 0.0 0 0.0 9.7 34.9 351
12/09/2019 1:50 6.8 100 0.0 0 0.0 9.2 32.9 349
12/09/2019 2:00 6.6 100 0.0 0 0.0 9.8 35.1 354
12/09/2019 2:10 6.3 100 0.0 0 0.0 10.7 38.6 359
12/09/2019 2:20 6.2 100 0.0 0 0.0 11.4 41.2 1
12/09/2019 2:30 6.1 100 0.0 0 0.0 11.2 40.2 3
12/09/2019 2:40 6.5 100 0.0 0 0.0 11.7 42.0 8
12/09/2019 2:50 6.5 98 0.0 0 0.0 11.3 40.7 6
12/09/2019 3:00 6.9 94 0.0 0 0.0 10.8 38.9 7
12/09/2019 3:10 7.0 91 0.0 0 0.0 10.5 37.8 5
12/09/2019 3:20 7.2 90 0.0 0 0.0 10.0 35.9 3
12/09/2019 3:30 7.4 91 0.0 0 0.0 10.4 37.3 4
12/09/2019 3:40 7.5 94 0.0 0 0.0 10.6 38.1 2
12/09/2019 3:50 7.6 94 0.0 0 0.0 9.8 35.2 3
12/09/2019 4:00 7.7 94 0.0 0 0.0 11.2 40.4 4
12/09/2019 4:10 7.7 93 0.0 0 0.0 11.7 42.0 2
12/09/2019 4:20 7.8 91 0.0 0 0.0 11.4 41.0 2
12/09/2019 4:30 8.0 90 0.0 0 0.0 11.4 41.0 359
12/09/2019 4:40 8.0 89 0.0 0 0.0 9.7 34.9 358
12/09/2019 4:50 7.9 89 0.0 0 0.0 10.3 37.1 358
12/09/2019 5:00 7.8 90 0.0 0 0.0 10.7 38.3 359
12/09/2019 5:10 7.6 90 0.0 0 0.0 8.7 31.2 360
12/09/2019 5:20 7.5 92 0.0 0 0.0 9.8 35.2 358
12/09/2019 5:30 7.3 93 0.0 0 0.0 10.8 38.8 360
12/09/2019 5:40 7.3 93 0.0 0 0.0 11.3 40.6 2
12/09/2019 5:50 7.2 94 0.0 0 0.0 10.9 39.2 6
12/09/2019 6:00 7.4 94 16.1 0 0.0 10.3 37.2 12
12/09/2019 6:10 8.0 91 39.2 546 0.0 10.8 38.8 19
12/09/2019 6:20 8.5 87 64.2 600 0.0 10.5 37.7 21
12/09/2019 6:30 8.7 85 92.2 600 0.0 10.3 36.9 20
12/09/2019 6:40 8.5 87 121.8 600 0.0 9.8 35.2 18
12/09/2019 6:50 8.8 86 154.0 600 0.0 8.9 32.0 8
12/09/2019 7:00 9.0 85 186.9 600 0.0 9.1 32.6 17
12/09/2019 7:10 9.5 81 220.2 600 0.0 10.0 36.0 24
12/09/2019 7:20 9.7 80 252.2 600 0.0 8.5 30.6 24
12/09/2019 7:30 9.9 77 285.0 600 0.0 9.8 35.1 29
12/09/2019 7:40 10.1 75 317.9 600 0.0 9.5 34.3 26
12/09/2019 7:50 10.2 75 351.3 600 0.0 8.9 32.0 23
12/09/2019 8:00 10.3 75 383.2 600 0.0 7.6 27.4 24
12/09/2019 8:10 10.5 74 414.1 600 0.0 8.3 30.0 29
12/09/2019 8:20 10.6 74 445.5 600 0.0 7.7 27.8 29
12/09/2019 8:30 10.7 73 476.9 600 0.0 7.0 25.3 30
12/09/2019 8:40 11.0 73 510.7 600 0.0 6.4 23.0 27
12/09/2019 8:50 11.1 72 552.1 600 0.0 5.9 21.1 24
12/09/2019 9:00 11.3 72 579.9 600 0.0 5.7 20.4 26
12/09/2019 9:10 11.8 71 608.8 600 0.0 5.8 21.0 32
12/09/2019 9:20 11.9 70 633.6 600 0.0 4.9 17.7 27
12/09/2019 9:30 12.1 69 661.5 600 0.0 4.4 15.7 26
12/09/2019 9:40 12.7 69 683.6 600 0.0 3.7 13.3 28
12/09/2019 9:50 13.4 69 708.9 600 0.0 2.4 8.6 49
12/09/2019 10:00 13.7 66 731.3 600 0.0 2.6 9.2 47
12/09/2019 10:10 13.6 67 746.9 600 0.0 2.8 10.0 49
12/09/2019 10:20 13.5 69 767.2 600 0.0 2.2 8.1 38
12/09/2019 10:30 13.9 69 785.3 600 0.0 2.0 7.1 30
12/09/2019 10:40 14.5 67 793.3 600 0.0 1.6 5.6 33
12/09/2019 10:50 14.3 68 810.0 600 0.0 1.5 5.4 26
12/09/2019 11:00 14.6 66 814.0 600 0.0 0.6 2.0 22
12/09/2019 11:10 16.4 64 808.0 600 0.0 1.6 5.9 173
12/09/2019 11:20 16.5 65 813.0 600 0.0 1.8 6.3 176
12/09/2019 11:30 17.0 64 818.0 600 0.0 2.2 7.9 152
12/09/2019 11:40 17.6 63 823.0 600 0.0 1.6 5.7 156
12/09/2019 11:50 17.6 65 826.0 600 0.0 1.3 4.6 138
12/09/2019 12:00 17.6 65 825.0 600 0.0 1.8 6.6 149
12/09/2019 12:10 17.5 67 825.0 600 0.0 1.9 6.9 147
12/09/2019 12:20 17.9 63 824.0 600 0.0 2.5 8.9 165
12/09/2019 12:30 18.2 63 822.0 600 0.0 2.3 8.1 146
12/09/2019 12:40 18.0 63 818.0 600 0.0 2.2 7.9 145
12/09/2019 12:50 17.8 66 812.0 600 0.0 1.2 4.4 125
12/09/2019 13:00 17.0 70 804.0 600 0.0 1.3 4.6 119
12/09/2019 13:10 16.2 72 798.3 600 0.0 1.0 3.6 10
12/09/2019 13:20 15.6 75 811.0 600 0.0 1.1 3.8 23
12/09/2019 13:30 15.7 75 800.0 600 0.0 1.9 6.7 359
12/09/2019 13:40 15.5 74 786.0 600 0.0 2.2 8.0 348
12/09/2019 13:50 15.4 75 793.4 600 0.0 2.2 7.9 4
12/09/2019 14:00 15.7 75 744.6 600 0.0 2.3 8.3 353
12/09/2019 14:10 15.6 77 734.2 600 0.0 2.6 9.3 356
12/09/2019 14:20 15.7 77 712.7 600 0.0 1.2 4.2 346
12/09/2019 14:30 15.9 78 687.7 600 0.0 1.2 4.3 246
12/09/2019 14:40 16.3 76 663.4 600 0.0 0.9 3.1 173
12/09/2019 14:50 15.9 77 634.7 600 0.0 1.2 4.2 16
12/09/2019 15:00 15.7 79 611.5 600 0.0 2.2 7.9 350
12/09/2019 15:10 15.8 79 588.7 600 0.0 1.7 6.2 340
12/09/2019 15:20 15.4 81 558.2 600 0.0 1.5 5.5 343
12/09/2019 15:30 15.6 81 525.1 600 0.0 0.6 2.2 283
12/09/2019 15:40 16.6 77 485.3 600 0.0 1.0 3.7 205
12/09/2019 15:50 15.9 78 457.4 600 0.0 1.4 5.1 336
12/09/2019 16:00 16.1 79 423.5 600 0.0 0.4 1.5 296
12/09/2019 16:10 16.2 77 392.6 600 0.0 0.5 1.7 302
12/09/2019 16:20 16.4 74 359.8 600 0.0 1.3 4.8 323
12/09/2019 16:30 16.3 73 328.5 600 0.0 1.5 5.4 333
12/09/2019 16:40 16.2 68 294.8 600 0.0 1.1 3.9 319
12/09/2019 16:50 15.7 72 263.1 600 0.0 2.4 8.6 335
12/09/2019 17:00 15.0 77 230.9 600 0.0 1.9 6.9 328
12/09/2019 17:10 14.3 84 199.3 600 0.0 2.8 10.0 330
12/09/2019 17:20 13.8 86 168.0 600 0.0 3.5 12.6 339
12/09/2019 17:30 13.7 89 136.4 600 0.0 4.1 14.8 342
12/09/2019 17:40 13.5 90 106.0 600 0.0 4.2 15.0 342
12/09/2019 17:50 13.6 84 68.7 578 0.0 5.1 18.5 355
12/09/2019 18:00 13.8 82 51.4 600 0.0 5.1 18.4 353
12/09/2019 18:10 13.5 82 25.4 228 0.0 4.6 16.4 348
12/09/2019 18:20 13.6 76 0.0 0 0.0 4.8 17.2 349
12/09/2019 18:30 13.6 77 0.0 0 0.0 5.0 18.1 347
12/09/2019 18:40 13.1 84 0.0 0 0.0 4.8 17.2 343
12/09/2019 18:50 12.9 87 0.0 0 0.0 5.5 19.9 344
12/09/2019 19:00 13.1 80 0.0 0 0.0 6.1 22.0 345
12/09/2019 19:10 13.5 74 0.0 0 0.0 5.7 20.5 344
12/09/2019 19:20 13.4 79 0.0 0 0.0 6.1 22.0 348
12/09/2019 19:30 13.1 84 0.0 0 0.0 6.0 21.5 347
12/09/2019 19:40 12.3 90 0.0 0 0.0 4.4 15.9 337
12/09/2019 19:50 12.2 88 0.0 0 0.0 5.5 19.9 346
12/09/2019 20:00 12.5 83 0.0 0 0.0 5.1 18.4 358
12/09/2019 20:10 12.8 79 0.0 0 0.0 5.1 18.3 5
12/09/2019 20:20 12.5 84 0.0 0 0.0 6.1 21.8 358
12/09/2019 20:30 12.5 84 0.0 0 0.0 6.6 23.8 360
12/09/2019 20:40 12.4 85 0.0 0 0.0 6.6 23.7 3
12/09/2019 20:50 12.2 85 0.0 0 0.0 6.3 22.5 7
12/09/2019 21:00 12.2 85 0.0 0 0.0 6.8 24.6 3
12/09/2019 21:10 12.2 86 0.0 0 0.0 7.6 27.3 2
12/09/2019 21:20 11.9 86 0.0 0 0.0 7.9 28.3 3
12/09/2019 21:30 11.9 86 0.0 0 0.0 8.0 28.9 5
12/09/2019 21:40 12.0 85 0.0 0 0.0 7.8 28.1 10
12/09/2019 21:50 12.0 85 0.0 0 0.0 8.1 29.1 11
12/09/2019 22:00 12.2 82 0.0 0 0.0 7.3 26.2 16
12/09/2019 22:10 12.3 81 0.0 0 0.0 6.8 24.6 23
12/09/2019 22:20 12.4 79 0.0 0 0.0 6.7 23.9 30
12/09/2019 22:30 12.6 78 0.0 0 0.0 6.8 24.4 29
12/09/2019 22:40 12.6 78 0.0 0 0.0 6.5 23.4 27
12/09/2019 22:50 12.4 79 0.0 0 0.0 6.6 23.7 19
12/09/2019 23:00 12.2 80 0.0 0 0.0 6.6 23.8 13
12/09/2019 23:10 12.3 80 0.0 0 0.0 6.7 24.2 10
12/09/2019 23:20 12.2 80 0.0 0 0.0 6.1 22.0 10
12/09/2019 23:30 12.3 79 0.0 0 0.0 5.6 20.2 11
12/09/2019 23:40 12.4 78 0.0 0 0.0 5.6 20.1 21
12/09/2019 23:50 12.5 77 0.0 0 0.0 6.1 21.8 30
Anterior Página 1 de 1 Siguiente
Los datos de precipitación registrados en estaciones que están en cumbres son inferiores a lo real, como consecuencia del efecto del viento y de la nieve.


NOTA: Tipo de datos según el color:
   - Valores diarios o 10 minutos correctos
   - Valores diarios calculados a partir de un número de datos 10 minutos menor que 144 y mayor que 120, o de un número de datos semihorarios menor que 48 y mayor que 40 (caso de las estaciones de Riegos de Navarra y del MARM)
   - Valores diez minutos estimados


Contacto        Enlaces        Aviso legal